createdAt,value
2018-11-06T00:01:48.372Z,29.20
2018-11-06T00:04:16.774Z,28.77
2018-11-06T00:06:45.175Z,27.83
2018-11-06T00:09:13.818Z,26.37
2018-11-06T00:11:42.252Z,28.30
2018-11-06T00:14:10.868Z,26.60
2018-11-06T00:16:39.213Z,28.77
2018-11-06T00:19:07.634Z,27.87
2018-11-06T00:21:36.069Z,28.53
2018-11-06T00:24:04.509Z,27.10
2018-11-06T00:26:32.922Z,25.80
2018-11-06T00:29:01.296Z,27.17
2018-11-06T00:31:29.719Z,25.30
2018-11-06T00:33:58.101Z,25.97
2018-11-06T00:36:26.425Z,24.77
2018-11-06T00:38:54.756Z,24.83
2018-11-06T00:41:23.199Z,24.53
2018-11-06T00:43:51.611Z,25.50
2018-11-06T00:46:20.053Z,26.97
2018-11-06T00:48:48.431Z,25.37
2018-11-06T00:51:16.787Z,24.80
2018-11-06T00:53:45.709Z,26.00
2018-11-06T00:56:14.166Z,23.67
2018-11-06T00:58:42.475Z,24.70
2018-11-06T01:01:10.751Z,23.53
2018-11-06T01:03:44.114Z,22.97
2018-11-06T01:06:12.504Z,23.50
2018-11-06T01:08:40.839Z,25.07
2018-11-06T01:11:09.458Z,27.27
2018-11-06T01:13:37.824Z,22.13
2018-11-06T01:16:06.476Z,24.17
2018-11-06T01:18:34.947Z,25.03
2018-11-06T01:21:03.364Z,25.10
2018-11-06T01:23:31.794Z,24.33
2018-11-06T01:26:00.228Z,23.70
2018-11-06T01:28:28.571Z,24.37
2018-11-06T01:30:56.867Z,23.70
2018-11-06T01:33:25.235Z,23.47
2018-11-06T01:35:53.607Z,23.97
2018-11-06T01:38:22.121Z,23.67
2018-11-06T01:40:51.294Z,23.93
2018-11-06T01:43:19.647Z,23.67
2018-11-06T01:45:47.944Z,24.80
2018-11-06T01:48:16.256Z,24.00
2018-11-06T01:50:44.608Z,23.30
2018-11-06T01:53:12.963Z,22.67
2018-11-06T01:55:41.266Z,24.27
2018-11-06T01:58:09.591Z,23.13
2018-11-06T02:00:37.958Z,22.80
2018-11-06T02:03:06.363Z,23.43
2018-11-06T02:05:34.733Z,21.87
2018-11-06T02:08:03.050Z,24.57
2018-11-06T02:10:31.394Z,23.80
2018-11-06T02:12:59.835Z,22.93
2018-11-06T02:15:28.246Z,22.33
2018-11-06T02:17:56.647Z,21.53
2018-11-06T02:20:25.156Z,22.80
2018-11-06T02:22:53.728Z,21.97
2018-11-06T02:25:22.106Z,21.60
2018-11-06T02:27:50.488Z,20.67
2018-11-06T02:30:18.848Z,22.90
2018-11-06T02:32:47.553Z,22.30
2018-11-06T02:35:15.967Z,22.07
2018-11-06T02:37:44.412Z,22.97
2018-11-06T02:40:14.698Z,22.07
2018-11-06T02:42:43.086Z,22.10
2018-11-06T02:45:12.218Z,21.37
2018-11-06T02:47:41.367Z,21.50
2018-11-06T02:50:10.529Z,22.67
2018-11-06T02:52:38.900Z,20.10
2018-11-06T02:55:07.728Z,22.50
2018-11-06T02:57:36.165Z,20.00
2018-11-06T03:00:04.595Z,21.40
2018-11-06T03:02:33.024Z,21.10
2018-11-06T03:05:01.289Z,22.03
2018-11-06T03:07:29.729Z,20.77
2018-11-06T03:09:58.081Z,21.80
2018-11-06T03:12:26.451Z,21.47
2018-11-06T03:14:54.932Z,21.80
2018-11-06T03:17:23.264Z,21.20
2018-11-06T03:19:51.610Z,22.17
2018-11-06T03:22:19.963Z,23.77
2018-11-06T03:24:48.304Z,21.60
2018-11-06T03:27:17.968Z,21.30
2018-11-06T03:29:47.251Z,19.97
2018-11-06T03:32:16.111Z,19.40
2018-11-06T03:34:44.612Z,16.77
2018-11-06T03:37:12.951Z,17.70
2018-11-06T03:39:41.276Z,17.40
2018-11-06T03:42:09.653Z,17.80
2018-11-06T03:44:37.940Z,15.67
2018-11-06T03:47:06.286Z,16.57
2018-11-06T03:49:34.549Z,15.73
2018-11-06T03:52:02.964Z,15.27
2018-11-06T03:54:31.355Z,17.13
2018-11-06T03:56:59.800Z,17.70
2018-11-06T03:59:28.107Z,16.50
2018-11-06T04:01:56.497Z,16.73
2018-11-06T04:04:24.836Z,17.10
2018-11-06T04:06:53.224Z,17.80
2018-11-06T04:09:21.652Z,18.70
2018-11-06T04:11:50.525Z,17.17
2018-11-06T04:14:18.819Z,17.40
2018-11-06T04:16:47.155Z,17.67
2018-11-06T04:19:15.519Z,16.83
2018-11-06T04:21:43.840Z,16.53
2018-11-06T04:24:13.386Z,15.70
2018-11-06T04:26:41.675Z,16.80
2018-11-06T04:29:10.504Z,16.97
2018-11-06T04:31:39.567Z,16.73
2018-11-06T04:34:08.599Z,15.83
2018-11-06T04:36:37.070Z,17.37
2018-11-06T04:39:08.059Z,16.23
2018-11-06T04:41:36.364Z,16.37
2018-11-06T04:44:05.186Z,16.90
2018-11-06T04:46:33.566Z,16.07
2018-11-06T04:49:01.851Z,17.23
2018-11-06T04:51:30.284Z,17.20
2018-11-06T04:53:59.518Z,16.90
2018-11-06T04:56:28.641Z,16.47
2018-11-06T04:58:56.999Z,15.03
2018-11-06T05:01:25.549Z,15.60
2018-11-06T05:03:53.876Z,15.50
2018-11-06T05:06:22.210Z,15.10
2018-11-06T05:08:50.513Z,15.53
2018-11-06T05:11:18.869Z,14.17
2018-11-06T05:13:47.194Z,13.97
2018-11-06T05:16:15.531Z,14.00
2018-11-06T05:18:43.912Z,14.33
2018-11-06T05:21:12.275Z,14.00
2018-11-06T05:23:40.687Z,14.23
2018-11-06T05:26:09.045Z,14.33
2018-11-06T05:28:37.445Z,13.57
2018-11-06T05:31:05.883Z,12.77
2018-11-06T05:33:34.172Z,13.67
2018-11-06T05:36:02.516Z,11.90
2018-11-06T05:38:30.856Z,12.77
2018-11-06T05:41:01.637Z,11.57
2018-11-06T05:43:30.025Z,12.23
2018-11-06T05:45:58.429Z,11.90
2018-11-06T05:48:26.900Z,12.83
2018-11-06T05:50:55.502Z,11.97
2018-11-06T05:53:24.076Z,12.43
2018-11-06T05:55:52.394Z,12.13
2018-11-06T05:58:20.755Z,12.17
2018-11-06T06:00:49.172Z,12.57
2018-11-06T06:03:17.548Z,13.23
2018-11-06T06:05:45.979Z,14.57
2018-11-06T06:08:14.333Z,11.83
2018-11-06T06:10:42.863Z,13.90
2018-11-06T06:13:11.213Z,12.00
2018-11-06T06:15:39.517Z,16.77
2018-11-06T06:18:07.827Z,19.47
2018-11-06T06:20:36.176Z,19.97
2018-11-06T06:23:04.541Z,17.73
2018-11-06T06:25:32.855Z,16.77
2018-11-06T06:28:01.264Z,17.87
2018-11-06T06:30:29.595Z,18.10
2018-11-06T06:32:57.912Z,17.83
2018-11-06T06:35:26.244Z,18.27
2018-11-06T06:37:54.543Z,18.97
2018-11-06T06:40:22.889Z,19.07
2018-11-06T06:42:51.163Z,19.50
2018-11-06T06:45:19.969Z,20.40
2018-11-06T06:47:48.335Z,15.00
2018-11-06T06:50:18.841Z,14.30
2018-11-06T06:52:47.864Z,13.23
2018-11-06T06:55:16.874Z,12.77
2018-11-06T06:57:46.225Z,14.67
2018-11-06T07:00:16.196Z,14.00
2018-11-06T07:02:44.503Z,13.23
2018-11-06T07:05:14.241Z,14.30
2018-11-06T07:07:43.279Z,13.87
2018-11-06T07:10:13.436Z,13.50
2018-11-06T07:12:42.975Z,13.50
2018-11-06T07:15:13.640Z,13.60
2018-11-06T07:17:42.365Z,12.63
2018-11-06T07:20:13.029Z,11.60
2018-11-06T07:22:41.431Z,11.80
2018-11-06T07:25:10.730Z,13.30
2018-11-06T07:27:39.874Z,12.83
2018-11-06T07:30:10.133Z,12.80
2018-11-06T07:32:38.792Z,12.07
2018-11-06T07:35:08.172Z,13.27
2018-11-06T07:37:36.403Z,12.50
2018-11-06T07:40:05.243Z,13.77
2018-11-06T07:42:33.641Z,13.23
2018-11-06T07:45:01.964Z,15.40
2018-11-06T07:47:30.731Z,14.63
2018-11-06T07:49:59.134Z,14.40
2018-11-06T07:52:27.557Z,15.50
2018-11-06T07:54:55.916Z,14.37
2018-11-06T07:57:24.275Z,14.97
2018-11-06T07:59:52.769Z,15.60
2018-11-06T08:02:27.571Z,14.80
2018-11-06T08:04:55.879Z,19.57
2018-11-06T08:07:24.231Z,15.63
2018-11-06T08:09:52.783Z,14.83
2018-11-06T08:12:21.164Z,16.20
2018-11-06T08:14:49.528Z,15.30
2018-11-06T08:17:17.766Z,16.20
2018-11-06T08:19:46.160Z,16.80
2018-11-06T08:22:14.490Z,15.83
2018-11-06T08:24:42.884Z,16.87
2018-11-06T08:27:11.217Z,15.20
2018-11-06T08:29:39.536Z,17.77
2018-11-06T08:32:08.243Z,16.70
2018-11-06T08:34:36.291Z,16.40
2018-11-06T08:37:04.759Z,15.93
2018-11-06T08:39:33.080Z,17.50
2018-11-06T08:42:01.441Z,17.67
2018-11-06T08:44:29.801Z,16.90
2018-11-06T08:46:58.164Z,16.40
2018-11-06T08:49:26.576Z,15.10
2018-11-06T08:51:55.544Z,17.60
2018-11-06T08:54:23.916Z,16.30
2018-11-06T08:56:52.214Z,15.77
2018-11-06T08:59:20.595Z,16.53
2018-11-06T09:01:49.026Z,17.40
2018-11-06T09:04:17.350Z,16.63
2018-11-06T09:06:45.692Z,17.47
2018-11-06T09:09:14.023Z,17.63
2018-11-06T09:11:42.315Z,17.73
2018-11-06T09:14:10.644Z,17.77
2018-11-06T09:16:39.024Z,16.80
2018-11-06T09:19:07.296Z,17.57
2018-11-06T09:21:35.654Z,17.40
2018-11-06T09:24:04.132Z,18.13
2018-11-06T09:26:32.453Z,18.60
2018-11-06T09:29:00.768Z,17.40
2018-11-06T09:31:29.770Z,16.03
2018-11-06T09:33:58.696Z,18.03
2018-11-06T09:36:27.524Z,17.43
2018-11-06T09:38:55.924Z,16.67
2018-11-06T09:41:24.606Z,16.90
2018-11-06T09:43:53.192Z,17.77
2018-11-06T09:46:21.671Z,17.93
2018-11-06T09:48:50.000Z,17.80
2018-11-06T09:51:18.327Z,17.30
2018-11-06T09:53:46.724Z,18.60
2018-11-06T09:56:15.022Z,19.13
2018-11-06T09:58:43.422Z,17.93
2018-11-06T10:01:11.744Z,18.20
2018-11-06T10:03:40.198Z,17.50
2018-11-06T10:06:08.724Z,17.27
2018-11-06T10:08:37.066Z,18.53
2018-11-06T10:11:05.424Z,18.47
2018-11-06T10:13:33.854Z,19.00
2018-11-06T10:16:02.243Z,18.87
2018-11-06T10:18:30.669Z,18.10
2018-11-06T10:20:59.030Z,17.77
2018-11-06T10:23:27.426Z,18.67
2018-11-06T10:25:55.755Z,18.23
2018-11-06T10:28:24.062Z,18.50
2018-11-06T10:30:53.222Z,17.77
2018-11-06T10:33:21.556Z,18.03
2018-11-06T10:35:49.889Z,17.60
2018-11-06T10:38:18.221Z,18.90
2018-11-06T10:40:46.585Z,18.23
2018-11-06T10:43:14.877Z,19.53
2018-11-06T10:45:43.263Z,18.80
2018-11-06T10:48:11.643Z,18.07
2018-11-06T10:50:40.017Z,17.67
2018-11-06T10:53:08.348Z,18.40
2018-11-06T10:55:36.768Z,18.00
2018-11-06T10:58:05.563Z,17.63
2018-11-06T11:00:39.071Z,18.57
2018-11-06T11:03:11.731Z,17.63
2018-11-06T11:05:40.736Z,17.30
2018-11-06T11:08:08.988Z,17.30
2018-11-06T11:10:37.369Z,17.70
2018-11-06T11:13:05.919Z,17.33
2018-11-06T11:15:34.228Z,16.10
2018-11-06T11:18:02.609Z,18.50
2018-11-06T11:20:30.989Z,17.60
2018-11-06T11:22:59.373Z,16.70
2018-11-06T11:25:27.745Z,16.97
2018-11-06T11:27:56.055Z,17.40
2018-11-06T11:30:24.423Z,17.97
2018-11-06T11:32:52.752Z,17.80
2018-11-06T11:35:21.052Z,18.67
2018-11-06T11:37:56.164Z,19.40
2018-11-06T11:40:24.517Z,17.50
2018-11-06T11:42:52.872Z,19.17
2018-11-06T11:45:21.229Z,17.70
2018-11-06T11:47:49.636Z,17.50
2018-11-06T11:50:17.989Z,18.20
2018-11-06T11:52:46.307Z,16.83
2018-11-06T11:55:14.612Z,17.37
2018-11-06T11:57:42.994Z,16.17
2018-11-06T12:00:14.455Z,17.27
2018-11-06T12:02:42.936Z,16.37
2018-11-06T12:05:11.848Z,16.50
2018-11-06T12:07:40.368Z,17.60
2018-11-06T12:10:10.119Z,15.57
2018-11-06T12:12:38.584Z,17.00
2018-11-06T12:15:10.275Z,15.87
2018-11-06T12:17:38.670Z,16.10
2018-11-06T12:20:07.008Z,15.33
2018-11-06T12:22:35.405Z,14.40
2018-11-06T12:25:03.895Z,14.67
2018-11-06T12:27:32.178Z,13.30
2018-11-06T12:30:00.561Z,14.47
2018-11-06T12:32:28.892Z,14.00
2018-11-06T12:34:57.255Z,14.20
2018-11-06T12:37:25.616Z,13.23
2018-11-06T12:39:53.935Z,13.13
2018-11-06T12:42:23.875Z,13.53
2018-11-06T12:44:52.282Z,13.20
2018-11-06T12:47:20.643Z,12.30
2018-11-06T12:49:48.937Z,12.20
2018-11-06T12:52:17.338Z,12.63
2018-11-06T12:54:45.608Z,12.30
2018-11-06T12:57:13.936Z,12.20
2018-11-06T12:59:42.248Z,11.43
2018-11-06T13:02:10.578Z,10.80
2018-11-06T13:04:38.902Z,11.70
2018-11-06T13:07:07.248Z,10.47
2018-11-06T13:09:35.575Z,11.40
2018-11-06T13:12:03.921Z,10.50
2018-11-06T13:14:32.199Z,10.60
2018-11-06T13:17:00.541Z,10.73
2018-11-06T13:19:28.804Z,9.97
2018-11-06T13:21:57.120Z,10.10
2018-11-06T13:24:25.444Z,10.80
2018-11-06T13:26:53.755Z,10.07
2018-11-06T13:29:22.148Z,10.30
2018-11-06T13:31:50.531Z,10.83
2018-11-06T13:34:18.867Z,9.87
2018-11-06T13:36:47.225Z,10.47
2018-11-06T13:39:15.601Z,9.40
2018-11-06T13:41:44.252Z,10.63
2018-11-06T13:44:13.005Z,10.70
2018-11-06T13:46:41.109Z,10.60
2018-11-06T13:49:09.477Z,9.97
2018-11-06T13:51:37.822Z,10.73
2018-11-06T13:54:06.275Z,10.73
2018-11-06T13:56:34.632Z,10.00
2018-11-06T13:59:02.947Z,9.23
2018-11-06T14:01:31.270Z,9.70
2018-11-06T14:03:59.670Z,10.60
2018-11-06T14:06:28.080Z,9.73
2018-11-06T14:08:56.384Z,10.57
2018-11-06T14:11:24.752Z,10.23
2018-11-06T14:13:53.135Z,10.13
2018-11-06T14:16:21.575Z,10.33
2018-11-06T14:18:49.931Z,10.07
2018-11-06T14:21:18.306Z,9.40
2018-11-06T14:23:46.616Z,10.47
2018-11-06T14:26:14.962Z,11.07
2018-11-06T14:28:43.246Z,10.40
2018-11-06T14:31:11.588Z,11.40
2018-11-06T14:33:39.920Z,10.90
2018-11-06T14:36:08.310Z,10.30
2018-11-06T14:38:36.669Z,10.13
2018-11-06T14:41:05.188Z,11.50
2018-11-06T14:43:33.595Z,10.33
2018-11-06T14:46:02.052Z,11.37
2018-11-06T14:48:30.489Z,11.17
2018-11-06T14:50:58.770Z,12.27
2018-11-06T14:53:27.199Z,10.90
2018-11-06T14:55:55.533Z,21.93
2018-11-06T14:58:23.904Z,12.90
2018-11-06T15:00:52.279Z,11.83
2018-11-06T15:03:28.665Z,11.07
2018-11-06T15:06:02.987Z,10.77
2018-11-06T15:08:31.489Z,11.20
2018-11-06T15:10:59.870Z,11.30
2018-11-06T15:13:28.274Z,10.57
2018-11-06T15:15:56.584Z,10.07
2018-11-06T15:18:24.898Z,10.40
2018-11-06T15:20:53.292Z,10.30
2018-11-06T15:23:21.622Z,10.40
2018-11-06T15:25:49.972Z,12.23
2018-11-06T15:28:18.324Z,10.67
2018-11-06T15:30:46.687Z,11.00
2018-11-06T15:33:15.068Z,10.83
2018-11-06T15:35:43.456Z,10.63
2018-11-06T15:38:11.877Z,11.20
2018-11-06T15:40:40.327Z,10.60
2018-11-06T15:43:08.703Z,11.27
2018-11-06T15:45:37.061Z,11.00
2018-11-06T15:48:05.520Z,11.63
2018-11-06T15:50:34.013Z,10.87
2018-11-06T15:53:02.555Z,11.30
2018-11-06T15:55:30.929Z,11.10
2018-11-06T15:57:59.303Z,12.90
2018-11-06T16:00:27.676Z,11.77
2018-11-06T16:02:56.022Z,11.67
2018-11-06T16:05:24.429Z,12.27
2018-11-06T16:07:52.763Z,13.17
2018-11-06T16:10:22.491Z,12.73
2018-11-06T16:12:50.946Z,14.53
2018-11-06T16:15:19.410Z,15.90
2018-11-06T16:17:47.848Z,15.13
2018-11-06T16:20:17.687Z,14.20
2018-11-06T16:22:46.043Z,14.10
2018-11-06T16:25:15.563Z,16.13
2018-11-06T16:27:44.319Z,14.20
2018-11-06T16:30:15.678Z,14.13
2018-11-06T16:32:44.181Z,16.30
2018-11-06T16:35:14.729Z,14.30
2018-11-06T16:37:43.379Z,15.20
2018-11-06T16:40:12.376Z,15.90
2018-11-06T16:42:41.495Z,16.83
2018-11-06T16:45:12.527Z,18.07
2018-11-06T16:47:41.139Z,22.03
2018-11-06T16:50:11.316Z,20.80
2018-11-06T16:52:39.900Z,22.17
2018-11-06T16:55:08.761Z,21.93
2018-11-06T16:57:37.707Z,24.40
2018-11-06T17:00:07.778Z,24.53
2018-11-06T17:02:36.149Z,24.90
2018-11-06T17:05:04.764Z,24.13
2018-11-06T17:07:33.202Z,25.53
2018-11-06T17:10:01.646Z,24.43
2018-11-06T17:12:30.024Z,24.97
2018-11-06T17:14:58.452Z,25.63
2018-11-06T17:17:27.002Z,25.70
2018-11-06T17:19:55.371Z,27.20
2018-11-06T17:22:23.848Z,26.10
2018-11-06T17:24:53.553Z,27.03
2018-11-06T17:27:21.968Z,26.40
2018-11-06T17:29:51.273Z,28.17
2018-11-06T17:32:19.683Z,28.70
2018-11-06T17:34:48.098Z,27.63
2018-11-06T17:37:16.520Z,29.17
2018-11-06T17:39:44.946Z,29.50
2018-11-06T17:42:13.421Z,28.53
2018-11-06T17:44:42.487Z,29.77
2018-11-06T17:47:10.878Z,30.67
2018-11-06T17:49:39.377Z,29.87
2018-11-06T17:52:07.814Z,30.37
2018-11-06T17:54:36.232Z,31.93
2018-11-06T17:57:04.688Z,31.67
2018-11-06T17:59:33.158Z,31.30
2018-11-06T18:02:01.566Z,32.90
2018-11-06T18:04:30.152Z,30.70
2018-11-06T18:06:58.394Z,33.07
2018-11-06T18:09:26.699Z,37.67
2018-11-06T18:11:55.355Z,31.60
2018-11-06T18:14:23.759Z,33.03
2018-11-06T18:16:52.234Z,30.90
2018-11-06T18:19:20.764Z,33.63
2018-11-06T18:21:49.273Z,30.83
2018-11-06T18:24:17.603Z,30.90
2018-11-06T18:26:46.037Z,30.47
2018-11-06T18:29:14.421Z,31.83
2018-11-06T18:31:42.802Z,31.93
2018-11-06T18:34:11.236Z,30.87
2018-11-06T18:36:39.628Z,30.73
2018-11-06T18:39:11.593Z,32.23
2018-11-06T18:41:40.029Z,38.20
2018-11-06T18:44:08.887Z,33.23
2018-11-06T18:46:37.297Z,32.83
2018-11-06T18:49:06.148Z,32.43
2018-11-06T18:51:34.624Z,33.00
2018-11-06T18:54:04.203Z,34.00
2018-11-06T18:56:32.652Z,30.83
2018-11-06T18:59:01.103Z,30.07
2018-11-06T19:01:29.546Z,31.50
2018-11-06T19:03:57.964Z,31.30
2018-11-06T19:06:26.313Z,31.83
2018-11-06T19:08:54.727Z,31.53
2018-11-06T19:11:23.129Z,29.60
2018-11-06T19:13:51.547Z,33.60
2018-11-06T19:16:19.960Z,29.10
2018-11-06T19:18:48.287Z,31.77
2018-11-06T19:21:16.719Z,30.47
2018-11-06T19:23:45.172Z,32.50
2018-11-06T19:26:13.630Z,33.70
2018-11-06T19:28:42.079Z,32.03
2018-11-06T19:31:10.477Z,35.87
2018-11-06T19:33:38.831Z,36.37
2018-11-06T19:36:07.313Z,38.70
2018-11-06T19:38:36.015Z,37.23
2018-11-06T19:41:04.356Z,38.70
2018-11-06T19:43:32.667Z,39.23
2018-11-06T19:46:01.084Z,38.93
2018-11-06T19:48:29.480Z,41.17
2018-11-06T19:50:57.873Z,42.67
2018-11-06T19:53:26.326Z,40.97
2018-11-06T19:55:54.670Z,44.20
2018-11-06T19:58:23.063Z,41.10
2018-11-06T20:00:51.452Z,41.43
2018-11-06T20:03:19.820Z,43.00
2018-11-06T20:05:48.428Z,42.27
2018-11-06T20:08:16.812Z,44.00
2018-11-06T20:10:45.224Z,42.73
2018-11-06T20:13:13.648Z,43.57
2018-11-06T20:15:42.104Z,38.27
2018-11-06T20:18:10.498Z,41.40
2018-11-06T20:20:39.789Z,40.50
2018-11-06T20:23:09.723Z,39.70
2018-11-06T20:25:38.139Z,40.10
2018-11-06T20:28:06.550Z,39.40
2018-11-06T20:30:34.976Z,38.87
2018-11-06T20:33:03.516Z,39.40
2018-11-06T20:35:31.896Z,40.10
2018-11-06T20:38:00.446Z,38.23
2018-11-06T20:40:28.764Z,40.77
2018-11-06T20:42:57.235Z,42.50
2018-11-06T20:45:25.509Z,39.23
2018-11-06T20:47:54.044Z,37.50
2018-11-06T20:50:23.705Z,38.73
2018-11-06T20:52:52.154Z,37.37
2018-11-06T20:55:20.582Z,38.93
2018-11-06T20:57:49.015Z,39.83
2018-11-06T21:00:28.160Z,38.40
2018-11-06T21:02:57.984Z,35.90
2018-11-06T21:05:26.610Z,36.10
2018-11-06T21:07:55.131Z,34.33
2018-11-06T21:10:25.650Z,35.40
2018-11-06T21:12:54.162Z,34.70
2018-11-06T21:15:22.738Z,32.67
2018-11-06T21:17:51.242Z,35.77
2018-11-06T21:20:19.769Z,34.13
2018-11-06T21:22:48.135Z,34.47
2018-11-06T21:25:16.559Z,34.13
2018-11-06T21:27:45.396Z,32.43
2018-11-06T21:30:15.784Z,32.97
2018-11-06T21:32:45.461Z,27.77
2018-11-06T21:35:13.877Z,29.90
2018-11-06T21:37:42.249Z,32.83
2018-11-06T21:40:13.219Z,28.57
2018-11-06T21:42:42.331Z,28.90
2018-11-06T21:45:11.829Z,27.87
2018-11-06T21:47:40.864Z,28.00
2018-11-06T21:50:10.532Z,28.60
2018-11-06T21:52:38.993Z,26.70
2018-11-06T21:55:08.483Z,24.90
2018-11-06T21:57:36.995Z,24.53
2018-11-06T22:00:07.645Z,27.33
2018-11-06T22:02:36.151Z,26.00
2018-11-06T22:05:05.756Z,27.67
2018-11-06T22:07:34.235Z,26.80
2018-11-06T22:10:02.705Z,26.87
2018-11-06T22:12:31.197Z,24.67
2018-11-06T22:14:59.661Z,25.13
2018-11-06T22:17:28.087Z,25.60
2018-11-06T22:19:57.451Z,25.17
2018-11-06T22:22:25.978Z,24.73
2018-11-06T22:24:54.449Z,25.27
2018-11-06T22:27:22.889Z,26.50
2018-11-06T22:29:51.298Z,27.23
2018-11-06T22:32:19.902Z,25.10
2018-11-06T22:34:48.178Z,25.60
2018-11-06T22:37:23.211Z,26.67
2018-11-06T22:39:51.624Z,26.20
2018-11-06T22:42:19.957Z,25.30
2018-11-06T22:44:48.330Z,25.03
2018-11-06T22:47:16.747Z,24.90
2018-11-06T22:49:45.177Z,26.30
2018-11-06T22:52:16.345Z,24.43
2018-11-06T22:54:44.759Z,25.27
2018-11-06T22:57:13.186Z,24.30
2018-11-06T22:59:41.612Z,24.53
2018-11-06T23:02:10.087Z,23.27
2018-11-06T23:04:38.559Z,25.07
2018-11-06T23:07:07.875Z,24.80
2018-11-06T23:09:36.179Z,22.40
2018-11-06T23:12:04.716Z,23.60
2018-11-06T23:14:33.276Z,24.00
2018-11-06T23:17:01.865Z,24.23
2018-11-06T23:19:30.296Z,22.70
2018-11-06T23:21:58.711Z,22.80
2018-11-06T23:24:27.996Z,23.53
2018-11-06T23:26:56.364Z,22.30
2018-11-06T23:29:24.807Z,21.27
2018-11-06T23:31:53.197Z,23.07
2018-11-06T23:34:21.645Z,21.60
2018-11-06T23:36:50.101Z,22.57
2018-11-06T23:39:18.515Z,21.23
2018-11-06T23:41:46.976Z,22.37
2018-11-06T23:44:15.418Z,20.57
2018-11-06T23:46:43.857Z,20.37
2018-11-06T23:49:12.490Z,21.47
2018-11-06T23:51:40.844Z,20.83
2018-11-06T23:54:09.309Z,20.80
2018-11-06T23:56:37.696Z,20.40
2018-11-06T23:59:06.330Z,20.23
